USTRANSCOM 8620




PAED
Elmendorf Air Force Base
Elmendorf, Alaska
RODN
Kadena Air Base
Kadena,

Activity Log

Date Flight Route Aircraft Duration
No Flights Yet

Route Details

Aircraft Information
Group: Boeing Common
Types: B752,B762,B763
Route Data
Demand: V
Distance: 3817nm
Duration: 10h 00m
Recm'd Route: NODLE R220 NIKLL R220 NIPPI R220 NUBDA R220 NANNO R220 NODAN R217 SDE Y512 GTC V30 KMC Y382 WAKIT Y282 POPPY V53 SUC B597 ONC OKUMA
Origin Wx: PAED 252323Z 00000KT 7SM -SN SCT020 BKN055 M01/M03 A3006 RMK AO2A SLP177
Dest. Wx: RODN 252256Z AUTO 05004KT 10SM CLR 12/11 A3010 RMK AO2 SLP201 T01200107 $
Notes: USTRANSCOM CONTRACT FLIGHT

Financial History
Total Freight: 0lbs
Average Load: 0lbs/flt
Fuel Used: 0lbs
Avg. Fuel Used: 0lbs/flt
Fuel Expense: $0
Avg. Fuel Expense: $0
Avg. Fuel Cost: $0/lbs
Total Gross Income: $0
Pilot Pay: $0
Total Expenses: $0
Total Revenue: $0
Average Revenue: $0